Dalzell, SC (29040)

8:55 AM EST on March 02, 2015 (GMT -0500)
Historic Hills | Change Station
CLOSE
Current Station
Personal Weather Station
Location: Dalzell, SC
Elevation: 219 ft
Nearby Weather Stations
Active Advisory: Dense Fog Advisory

Elev 219 ft 33.99 °N, 80.53 °W | Updated 45 seconds ago

Fog
Fog
47.8 °F
Feels Like 46 °F
N
3.8
Wind Variable Wind from South
Gusts 3.8 mph

Today
High -- | Low -- °F
--% Chance of Precip.
Yesterday
High -- | Low -- °F
Precip. -- in
6:49 AM 6:18 PM
Waxing Gibbous, 91% visible
Pressure 30.24 in
Visibility 0.2 miles
Clouds Overcast 200 ft
Windchill 46 °F
Dew Point 48 °F
Humidity 99%
Rainfall 0.00 in
Snow Depth Not available.
UV 1 out of 12
Pollen 9.00 out of 12
Air Quality Not available.
Flu Activity Not available.
SPECI KSSC 021343Z 22007KT 1/4SM R22/5500FT FG OVC002 09/09 A3024 RMK AO2A COR 1345

More Conditions Fewer Conditions

Pressure 30.24 in
Visibility 0.2 miles
Clouds Overcast 200 ft
Windchill 46 °F
Dew Point 48 °F
Humidity 99%
Rainfall 0.00 in
Snow Depth Not available.
UV 1 out of 12
Pollen 9.00 out of 12
Air Quality Not available.
Flu Activity Not available.
SPECI KSSC 021343Z 22007KT 1/4SM R22/5500FT FG OVC002 09/09 A3024 RMK AO2A COR 1345

More Conditions Fewer Conditions

10-Day Weather Forecast

Almanac

Astronomy

Mar. 02, 2015 Rise Set
Actual Time
Civil Twilight
Nautical Twilight
Astronomical Twilight
Moon
Length of Visible Light
Length of Day
Tomorrow will be .
, % of the Moon is Illuminated

Today's Extremes

State Highs State Lows

Community

WunderPhotos

Upload Photos

1,801,784 photos uploaded!

WunderBlogs® & News

Nearby

Air Quality

  Air Quality AQ Index Pollutant
Not available.

Snow Depth

Station Depth Elevation

Earthquake Activity

City Distance Mag. Time & Date
Minimum magnitude displayed is 2.5.

Coastal Water Temperatures

Place Temperature

Nearby Weather Stations

Dense Fog Advisory
Statement as of 1:53 AM EST on March 02, 2015

... Dense fog advisory in effect until 9 am EST this morning...

The National Weather Service in Columbia has issued a dense fog
advisory... which is in effect until 9 am EST this morning.

* Visibility... one quarter mile or less.

* Impacts... hazardous driving conditions.

Precautionary/preparedness actions...

A dense fog advisory means visibilities will frequently be
reduced to less than one quarter mile. If driving... slow down...
use your headlights... and leave plenty of distance ahead of you.